Ribadesella, Spain
Current Conditions -  °F | °C
As of 8:30 AM on Saturday 25 Oct 2014 (Local Time) from LEAS Reporting Station
Clear Clear  
Wind Chill: 14°   Ceiling: Unl
Heat Index: 14°   Visibility: 6mi
Dew Point: 12°   Wind: 1mph
Humidity: 88%   Direction: NA
Pressure: 30.12"   Gusts: NA
Location:  43.46°N, 5.06°W
Report Text: LEAS 250630Z VRB01KT CAVOK 14/12 Q1020 NOSIG
Loading
Personal Weather Stations






























Interactive Weather Map
Tropical Storm Tracking
New forecast layout! Learn more

10-Day Weather Forecast

Advertisements
Track Severe Weather on mobile